sensor_id;sensor_type;location;lat;lon;timestamp;temperature;humidity
26803;DHT22;14378;51.796;5.808;2024-03-02T00:01:29;8.90;99.90
26803;DHT22;14378;51.796;5.808;2024-03-02T00:03:30;8.90;99.90
26803;DHT22;14378;51.796;5.808;2024-03-02T00:05:31;8.90;99.90
26803;DHT22;14378;51.796;5.808;2024-03-02T00:07:32;8.90;99.90
26803;DHT22;14378;51.796;5.808;2024-03-02T00:09:33;8.90;99.90
26803;DHT22;14378;51.796;5.808;2024-03-02T00:11:34;8.90;99.90
26803;DHT22;14378;51.796;5.808;2024-03-02T00:13:36;8.90;99.90
26803;DHT22;14378;51.796;5.808;2024-03-02T00:17:53;8.80;99.90
26803;DHT22;14378;51.796;5.808;2024-03-02T00:19:54;8.80;99.90
26803;DHT22;14378;51.796;5.808;2024-03-02T00:21:55;8.80;99.90
26803;DHT22;14378;51.796;5.808;2024-03-02T00:23:56;8.80;99.90
26803;DHT22;14378;51.796;5.808;2024-03-02T00:25:59;8.80;99.90
26803;DHT22;14378;51.796;5.808;2024-03-02T00:28:00;8.80;99.90
26803;DHT22;14378;51.796;5.808;2024-03-02T00:30:16;8.70;99.90
26803;DHT22;14378;51.796;5.808;2024-03-02T00:32:33;8.80;99.90
26803;DHT22;14378;51.796;5.808;2024-03-02T00:34:35;8.80;99.90
26803;DHT22;14378;51.796;5.808;2024-03-02T00:36:36;8.80;99.90
26803;DHT22;14378;51.796;5.808;2024-03-02T00:38:48;8.80;99.90
26803;DHT22;14378;51.796;5.808;2024-03-02T00:40:58;8.80;99.90
26803;DHT22;14378;51.796;5.808;2024-03-02T00:42:59;8.90;99.90
26803;DHT22;14378;51.796;5.808;2024-03-02T00:45:00;8.90;99.90
26803;DHT22;14378;51.796;5.808;2024-03-02T00:47:04;9.00;99.90
26803;DHT22;14378;51.796;5.808;2024-03-02T00:49:21;8.90;99.90
26803;DHT22;14378;51.796;5.808;2024-03-02T00:51:33;9.00;99.90
26803;DHT22;14378;51.796;5.808;2024-03-02T00:53:35;9.00;99.90
26803;DHT22;14378;51.796;5.808;2024-03-02T00:55:36;9.00;99.90
26803;DHT22;14378;51.796;5.808;2024-03-02T00:57:38;9.00;99.90
26803;DHT22;14378;51.796;5.808;2024-03-02T00:59:39;9.00;99.90
26803;DHT22;14378;51.796;5.808;2024-03-02T01:01:39;9.00;99.90
26803;DHT22;14378;51.796;5.808;2024-03-02T01:03:40;9.10;99.90
26803;DHT22;14378;51.796;5.808;2024-03-02T01:05:42;9.10;99.90
26803;DHT22;14378;51.796;5.808;2024-03-02T01:07:44;9.20;99.90
26803;DHT22;14378;51.796;5.808;2024-03-02T01:09:45;9.20;99.90
26803;DHT22;14378;51.796;5.808;2024-03-02T01:11:46;9.20;99.90
26803;DHT22;14378;51.796;5.808;2024-03-02T01:13:47;9.20;99.90
26803;DHT22;14378;51.796;5.808;2024-03-02T01:15:48;9.20;99.90
26803;DHT22;14378;51.796;5.808;2024-03-02T01:17:49;9.10;99.90
26803;DHT22;14378;51.796;5.808;2024-03-02T01:19:50;9.10;99.90
26803;DHT22;14378;51.796;5.808;2024-03-02T01:21:51;9.10;99.90
26803;DHT22;14378;51.796;5.808;2024-03-02T01:23:52;9.10;99.90
26803;DHT22;14378;51.796;5.808;2024-03-02T01:25:53;9.20;99.90
26803;DHT22;14378;51.796;5.808;2024-03-02T01:27:54;9.20;99.90
26803;DHT22;14378;51.796;5.808;2024-03-02T01:29:55;9.10;99.90
26803;DHT22;14378;51.796;5.808;2024-03-02T01:31:55;9.10;99.90
26803;DHT22;14378;51.796;5.808;2024-03-02T01:33:56;9.10;99.90
26803;DHT22;14378;51.796;5.808;2024-03-02T01:36:03;9.10;99.90
26803;DHT22;14378;51.796;5.808;2024-03-02T01:38:04;9.10;99.90
26803;DHT22;14378;51.796;5.808;2024-03-02T01:40:09;9.00;99.90
26803;DHT22;14378;51.796;5.808;2024-03-02T01:42:10;9.00;99.90
26803;DHT22;14378;51.796;5.808;2024-03-02T01:44:14;9.10;99.90
26803;DHT22;14378;51.796;5.808;2024-03-02T01:46:15;9.10;99.90
26803;DHT22;14378;51.796;5.808;2024-03-02T01:48:16;9.10;99.90
26803;DHT22;14378;51.796;5.808;2024-03-02T01:50:25;9.10;99.90
26803;DHT22;14378;51.796;5.808;2024-03-02T01:52:27;9.10;99.90
26803;DHT22;14378;51.796;5.808;2024-03-02T01:54:28;9.10;99.90
26803;DHT22;14378;51.796;5.808;2024-03-02T01:56:29;9.10;99.90
26803;DHT22;14378;51.796;5.808;2024-03-02T01:58:30;9.10;99.90
26803;DHT22;14378;51.796;5.808;2024-03-02T02:00:31;9.10;99.90
26803;DHT22;14378;51.796;5.808;2024-03-02T02:02:33;9.10;99.90
26803;DHT22;14378;51.796;5.808;2024-03-02T02:04:33;9.10;99.90
26803;DHT22;14378;51.796;5.808;2024-03-02T02:06:34;9.10;99.90
26803;DHT22;14378;51.796;5.808;2024-03-02T02:08:37;9.10;99.90
26803;DHT22;14378;51.796;5.808;2024-03-02T02:10:38;9.10;99.90
26803;DHT22;14378;51.796;5.808;2024-03-02T02:12:39;9.10;99.90
26803;DHT22;14378;51.796;5.808;2024-03-02T02:14:47;9.10;99.90
26803;DHT22;14378;51.796;5.808;2024-03-02T02:16:49;9.10;99.90
26803;DHT22;14378;51.796;5.808;2024-03-02T02:18:50;9.10;99.90
26803;DHT22;14378;51.796;5.808;2024-03-02T02:20:52;9.10;99.90
26803;DHT22;14378;51.796;5.808;2024-03-02T02:24:58;9.10;99.90
26803;DHT22;14378;51.796;5.808;2024-03-02T02:26:59;9.10;99.90
26803;DHT22;14378;51.796;5.808;2024-03-02T02:29:00;9.10;99.90
26803;DHT22;14378;51.796;5.808;2024-03-02T02:31:01;9.10;99.90
26803;DHT22;14378;51.796;5.808;2024-03-02T02:33:02;9.10;99.90
26803;DHT22;14378;51.796;5.808;2024-03-02T02:35:03;9.10;99.90
26803;DHT22;14378;51.796;5.808;2024-03-02T02:37:05;9.10;99.90
26803;DHT22;14378;51.796;5.808;2024-03-02T02:39:09;9.10;99.90
26803;DHT22;14378;51.796;5.808;2024-03-02T02:41:11;9.10;99.90
26803;DHT22;14378;51.796;5.808;2024-03-02T02:43:12;9.10;99.90
26803;DHT22;14378;51.796;5.808;2024-03-02T02:45:13;9.10;99.90
26803;DHT22;14378;51.796;5.808;2024-03-02T02:47:15;9.10;99.90
26803;DHT22;14378;51.796;5.808;2024-03-02T02:49:16;9.00;99.90
26803;DHT22;14378;51.796;5.808;2024-03-02T02:51:17;9.00;99.90
26803;DHT22;14378;51.796;5.808;2024-03-02T02:53:18;9.00;99.90
26803;DHT22;14378;51.796;5.808;2024-03-02T02:55:22;9.00;99.90
26803;DHT22;14378;51.796;5.808;2024-03-02T02:57:23;9.00;99.90
26803;DHT22;14378;51.796;5.808;2024-03-02T02:59:23;8.90;99.90
26803;DHT22;14378;51.796;5.808;2024-03-02T03:01:24;8.90;99.90
26803;DHT22;14378;51.796;5.808;2024-03-02T03:03:26;8.90;99.90
26803;DHT22;14378;51.796;5.808;2024-03-02T03:05:27;8.90;99.90
26803;DHT22;14378;51.796;5.808;2024-03-02T03:07:28;8.80;99.90
26803;DHT22;14378;51.796;5.808;2024-03-02T03:09:29;8.90;99.90
26803;DHT22;14378;51.796;5.808;2024-03-02T03:11:29;8.90;99.90
26803;DHT22;14378;51.796;5.808;2024-03-02T03:13:31;8.80;99.90
26803;DHT22;14378;51.796;5.808;2024-03-02T03:15:32;8.80;99.90
26803;DHT22;14378;51.796;5.808;2024-03-02T03:17:33;8.80;99.90
26803;DHT22;14378;51.796;5.808;2024-03-02T03:19:35;8.80;99.90
26803;DHT22;14378;51.796;5.808;2024-03-02T03:21:36;8.80;99.90
26803;DHT22;14378;51.796;5.808;2024-03-02T03:23:37;8.70;99.90
26803;DHT22;14378;51.796;5.808;2024-03-02T03:25:38;8.70;99.90
26803;DHT22;14378;51.796;5.808;2024-03-02T03:27:39;8.70;99.90
26803;DHT22;14378;51.796;5.808;2024-03-02T03:29:40;8.70;99.90
26803;DHT22;14378;51.796;5.808;2024-03-02T03:31:41;8.70;99.90
26803;DHT22;14378;51.796;5.808;2024-03-02T03:33:42;8.60;99.90
26803;DHT22;14378;51.796;5.808;2024-03-02T03:35:43;8.60;99.90
26803;DHT22;14378;51.796;5.808;2024-03-02T03:37:44;8.60;99.90
26803;DHT22;14378;51.796;5.808;2024-03-02T03:39:45;8.60;99.90
26803;DHT22;14378;51.796;5.808;2024-03-02T03:41:46;8.60;99.90
26803;DHT22;14378;51.796;5.808;2024-03-02T03:43:47;8.60;99.90
26803;DHT22;14378;51.796;5.808;2024-03-02T03:45:48;8.50;99.90
26803;DHT22;14378;51.796;5.808;2024-03-02T03:47:49;8.50;99.90
26803;DHT22;14378;51.796;5.808;2024-03-02T03:49:50;8.50;99.90
26803;DHT22;14378;51.796;5.808;2024-03-02T03:51:50;8.60;99.90
26803;DHT22;14378;51.796;5.808;2024-03-02T03:53:51;8.50;99.90
26803;DHT22;14378;51.796;5.808;2024-03-02T03:55:52;8.60;99.90
26803;DHT22;14378;51.796;5.808;2024-03-02T03:57:53;8.50;99.90
26803;DHT22;14378;51.796;5.808;2024-03-02T03:59:55;8.50;99.90
26803;DHT22;14378;51.796;5.808;2024-03-02T04:01:56;8.50;99.90
26803;DHT22;14378;51.796;5.808;2024-03-02T04:03:57;8.60;99.90
26803;DHT22;14378;51.796;5.808;2024-03-02T04:05:58;8.50;99.90
26803;DHT22;14378;51.796;5.808;2024-03-02T04:07:59;8.50;99.90
26803;DHT22;14378;51.796;5.808;2024-03-02T04:10:08;8.50;99.90
26803;DHT22;14378;51.796;5.808;2024-03-02T04:12:09;8.50;99.90
26803;DHT22;14378;51.796;5.808;2024-03-02T04:14:10;8.50;99.90
26803;DHT22;14378;51.796;5.808;2024-03-02T04:16:13;8.50;99.90
26803;DHT22;14378;51.796;5.808;2024-03-02T04:18:13;8.50;99.90
26803;DHT22;14378;51.796;5.808;2024-03-02T04:20:14;8.50;99.90
26803;DHT22;14378;51.796;5.808;2024-03-02T04:22:15;8.40;99.90
26803;DHT22;14378;51.796;5.808;2024-03-02T04:24:16;8.50;99.90
26803;DHT22;14378;51.796;5.808;2024-03-02T04:26:17;8.50;99.90
26803;DHT22;14378;51.796;5.808;2024-03-02T04:28:22;8.40;99.90
26803;DHT22;14378;51.796;5.808;2024-03-02T04:30:23;8.40;99.90
26803;DHT22;14378;51.796;5.808;2024-03-02T04:32:24;8.40;99.90
26803;DHT22;14378;51.796;5.808;2024-03-02T04:34:25;8.40;99.90
26803;DHT22;14378;51.796;5.808;2024-03-02T04:36:26;8.30;99.90
26803;DHT22;14378;51.796;5.808;2024-03-02T04:38:27;8.30;99.90
26803;DHT22;14378;51.796;5.808;2024-03-02T04:40:29;8.30;99.90
26803;DHT22;14378;51.796;5.808;2024-03-02T04:42:30;8.30;99.90
26803;DHT22;14378;51.796;5.808;2024-03-02T04:44:32;8.20;99.90
26803;DHT22;14378;51.796;5.808;2024-03-02T04:46:33;8.20;99.90
26803;DHT22;14378;51.796;5.808;2024-03-02T04:48:34;8.20;99.90
26803;DHT22;14378;51.796;5.808;2024-03-02T04:50:35;8.20;99.90
26803;DHT22;14378;51.796;5.808;2024-03-02T04:52:36;8.20;99.90
26803;DHT22;14378;51.796;5.808;2024-03-02T04:54:37;8.20;99.90
26803;DHT22;14378;51.796;5.808;2024-03-02T04:56:58;8.20;99.90
26803;DHT22;14378;51.796;5.808;2024-03-02T04:58:59;8.10;99.90
26803;DHT22;14378;51.796;5.808;2024-03-02T05:01:00;8.10;99.90
26803;DHT22;14378;51.796;5.808;2024-03-02T05:03:01;8.10;99.90
26803;DHT22;14378;51.796;5.808;2024-03-02T05:05:02;8.10;99.90
26803;DHT22;14378;51.796;5.808;2024-03-02T05:07:06;8.00;99.90
26803;DHT22;14378;51.796;5.808;2024-03-02T05:09:08;8.00;99.90
26803;DHT22;14378;51.796;5.808;2024-03-02T05:11:09;8.00;99.90
26803;DHT22;14378;51.796;5.808;2024-03-02T05:13:28;7.90;99.90
26803;DHT22;14378;51.796;5.808;2024-03-02T05:15:29;8.00;99.90
26803;DHT22;14378;51.796;5.808;2024-03-02T05:17:31;8.00;99.90
26803;DHT22;14378;51.796;5.808;2024-03-02T05:19:32;8.00;99.90
26803;DHT22;14378;51.796;5.808;2024-03-02T05:21:33;7.90;99.90
26803;DHT22;14378;51.796;5.808;2024-03-02T05:23:40;7.90;99.90
26803;DHT22;14378;51.796;5.808;2024-03-02T05:25:41;7.90;99.90
26803;DHT22;14378;51.796;5.808;2024-03-02T05:27:42;7.90;99.90
26803;DHT22;14378;51.796;5.808;2024-03-02T05:29:43;7.90;99.90
26803;DHT22;14378;51.796;5.808;2024-03-02T05:31:44;7.90;99.90
26803;DHT22;14378;51.796;5.808;2024-03-02T05:33:45;7.90;99.90
26803;DHT22;14378;51.796;5.808;2024-03-02T05:35:46;7.90;99.90
26803;DHT22;14378;51.796;5.808;2024-03-02T05:37:47;7.90;99.90
26803;DHT22;14378;51.796;5.808;2024-03-02T05:39:54;7.90;99.90
26803;DHT22;14378;51.796;5.808;2024-03-02T05:41:55;7.90;99.90
26803;DHT22;14378;51.796;5.808;2024-03-02T05:43:56;7.80;99.90
26803;DHT22;14378;51.796;5.808;2024-03-02T05:45:58;7.90;99.90
26803;DHT22;14378;51.796;5.808;2024-03-02T05:47:59;7.90;99.90
26803;DHT22;14378;51.796;5.808;2024-03-02T05:50:00;7.80;99.90
26803;DHT22;14378;51.796;5.808;2024-03-02T05:52:01;7.90;99.90
26803;DHT22;14378;51.796;5.808;2024-03-02T05:54:01;7.90;99.90
26803;DHT22;14378;51.796;5.808;2024-03-02T05:56:05;7.80;99.90
26803;DHT22;14378;51.796;5.808;2024-03-02T05:58:06;7.80;99.90
26803;DHT22;14378;51.796;5.808;2024-03-02T06:00:08;7.80;99.90
26803;DHT22;14378;51.796;5.808;2024-03-02T06:02:14;7.70;99.90
26803;DHT22;14378;51.796;5.808;2024-03-02T06:04:14;7.70;99.90
26803;DHT22;14378;51.796;5.808;2024-03-02T06:06:15;7.70;99.90
26803;DHT22;14378;51.796;5.808;2024-03-02T06:08:17;7.70;99.90
26803;DHT22;14378;51.796;5.808;2024-03-02T06:10:18;7.60;99.90
26803;DHT22;14378;51.796;5.808;2024-03-02T06:12:19;7.60;99.90
26803;DHT22;14378;51.796;5.808;2024-03-02T06:14:20;7.60;99.90
26803;DHT22;14378;51.796;5.808;2024-03-02T06:16:21;7.60;99.90
26803;DHT22;14378;51.796;5.808;2024-03-02T06:18:21;7.60;99.90
26803;DHT22;14378;51.796;5.808;2024-03-02T06:20:22;7.50;99.90
26803;DHT22;14378;51.796;5.808;2024-03-02T06:22:26;7.50;99.90
26803;DHT22;14378;51.796;5.808;2024-03-02T06:24:27;7.50;99.90
26803;DHT22;14378;51.796;5.808;2024-03-02T06:26:28;7.40;99.90
26803;DHT22;14378;51.796;5.808;2024-03-02T06:28:30;7.40;99.90
26803;DHT22;14378;51.796;5.808;2024-03-02T06:30:31;7.40;99.90
26803;DHT22;14378;51.796;5.808;2024-03-02T06:32:32;7.40;99.90
26803;DHT22;14378;51.796;5.808;2024-03-02T06:34:33;7.40;99.90
26803;DHT22;14378;51.796;5.808;2024-03-02T06:36:34;7.40;99.90
26803;DHT22;14378;51.796;5.808;2024-03-02T06:38:35;7.50;99.90
26803;DHT22;14378;51.796;5.808;2024-03-02T06:40:36;7.50;99.90
26803;DHT22;14378;51.796;5.808;2024-03-02T06:42:39;7.50;99.90
26803;DHT22;14378;51.796;5.808;2024-03-02T06:44:40;7.50;99.90
26803;DHT22;14378;51.796;5.808;2024-03-02T06:46:41;7.50;99.90
26803;DHT22;14378;51.796;5.808;2024-03-02T06:48:41;7.50;99.90
26803;DHT22;14378;51.796;5.808;2024-03-02T06:50:42;7.40;99.90
26803;DHT22;14378;51.796;5.808;2024-03-02T06:52:43;7.50;99.90
26803;DHT22;14378;51.796;5.808;2024-03-02T06:54:44;7.40;99.90
26803;DHT22;14378;51.796;5.808;2024-03-02T06:56:46;7.40;99.90
26803;DHT22;14378;51.796;5.808;2024-03-02T06:58:47;7.50;99.90
26803;DHT22;14378;51.796;5.808;2024-03-02T07:00:48;7.50;99.90
26803;DHT22;14378;51.796;5.808;2024-03-02T07:02:49;7.50;99.90
26803;DHT22;14378;51.796;5.808;2024-03-02T07:04:50;7.50;99.90
26803;DHT22;14378;51.796;5.808;2024-03-02T07:06:51;7.50;99.90
26803;DHT22;14378;51.796;5.808;2024-03-02T07:08:52;7.50;99.90
26803;DHT22;14378;51.796;5.808;2024-03-02T07:10:53;7.50;99.90
26803;DHT22;14378;51.796;5.808;2024-03-02T07:12:54;7.50;99.90
26803;DHT22;14378;51.796;5.808;2024-03-02T07:14:55;7.40;99.90
26803;DHT22;14378;51.796;5.808;2024-03-02T07:17:06;7.50;99.90
26803;DHT22;14378;51.796;5.808;2024-03-02T07:19:07;7.40;99.90
26803;DHT22;14378;51.796;5.808;2024-03-02T07:21:12;7.40;99.90
26803;DHT22;14378;51.796;5.808;2024-03-02T07:23:13;7.40;99.90
26803;DHT22;14378;51.796;5.808;2024-03-02T07:25:14;7.40;99.90
26803;DHT22;14378;51.796;5.808;2024-03-02T07:27:19;7.40;99.90
26803;DHT22;14378;51.796;5.808;2024-03-02T07:29:20;7.40;99.90
26803;DHT22;14378;51.796;5.808;2024-03-02T07:31:21;7.40;99.90
26803;DHT22;14378;51.796;5.808;2024-03-02T07:33:22;7.40;99.90
26803;DHT22;14378;51.796;5.808;2024-03-02T07:35:23;7.40;99.90
26803;DHT22;14378;51.796;5.808;2024-03-02T07:37:32;7.50;99.90
26803;DHT22;14378;51.796;5.808;2024-03-02T07:39:33;7.50;99.90
26803;DHT22;14378;51.796;5.808;2024-03-02T07:41:34;7.50;99.90
26803;DHT22;14378;51.796;5.808;2024-03-02T07:43:35;7.50;99.90
26803;DHT22;14378;51.796;5.808;2024-03-02T07:45:35;7.60;99.90
26803;DHT22;14378;51.796;5.808;2024-03-02T07:47:43;7.60;99.90
26803;DHT22;14378;51.796;5.808;2024-03-02T07:49:44;7.70;99.90
26803;DHT22;14378;51.796;5.808;2024-03-02T07:51:46;7.80;99.90
26803;DHT22;14378;51.796;5.808;2024-03-02T07:53:47;7.90;99.90
26803;DHT22;14378;51.796;5.808;2024-03-02T07:55:48;7.90;99.90
26803;DHT22;14378;51.796;5.808;2024-03-02T07:57:50;8.00;99.90
26803;DHT22;14378;51.796;5.808;2024-03-02T07:59:51;8.10;99.90
26803;DHT22;14378;51.796;5.808;2024-03-02T08:01:54;8.20;99.90
26803;DHT22;14378;51.796;5.808;2024-03-02T08:03:57;8.20;99.90
26803;DHT22;14378;51.796;5.808;2024-03-02T08:06:00;8.30;99.90
26803;DHT22;14378;51.796;5.808;2024-03-02T08:08:03;8.40;99.90
26803;DHT22;14378;51.796;5.808;2024-03-02T08:10:05;8.40;99.90
26803;DHT22;14378;51.796;5.808;2024-03-02T08:12:06;8.50;99.90
26803;DHT22;14378;51.796;5.808;2024-03-02T08:14:07;8.60;99.90
26803;DHT22;14378;51.796;5.808;2024-03-02T08:16:08;8.60;99.90
26803;DHT22;14378;51.796;5.808;2024-03-02T08:18:10;8.70;99.90
26803;DHT22;14378;51.796;5.808;2024-03-02T08:20:11;8.70;99.90
26803;DHT22;14378;51.796;5.808;2024-03-02T08:22:12;8.80;99.90
26803;DHT22;14378;51.796;5.808;2024-03-02T08:24:13;8.80;99.90
26803;DHT22;14378;51.796;5.808;2024-03-02T08:26:14;8.90;99.90
26803;DHT22;14378;51.796;5.808;2024-03-02T08:28:15;8.90;99.90
26803;DHT22;14378;51.796;5.808;2024-03-02T08:30:16;9.00;99.90
26803;DHT22;14378;51.796;5.808;2024-03-02T08:32:18;9.00;99.90
26803;DHT22;14378;51.796;5.808;2024-03-02T08:34:20;9.00;99.90
26803;DHT22;14378;51.796;5.808;2024-03-02T08:36:21;9.10;99.90
26803;DHT22;14378;51.796;5.808;2024-03-02T08:38:22;9.10;99.90
26803;DHT22;14378;51.796;5.808;2024-03-02T08:40:23;9.20;99.90
26803;DHT22;14378;51.796;5.808;2024-03-02T08:42:24;9.20;99.90
26803;DHT22;14378;51.796;5.808;2024-03-02T08:44:26;9.20;99.90
26803;DHT22;14378;51.796;5.808;2024-03-02T08:46:27;9.20;99.90
26803;DHT22;14378;51.796;5.808;2024-03-02T08:48:28;9.20;99.90
26803;DHT22;14378;51.796;5.808;2024-03-02T08:50:30;9.30;99.90
26803;DHT22;14378;51.796;5.808;2024-03-02T08:52:32;9.30;99.90
26803;DHT22;14378;51.796;5.808;2024-03-02T08:54:33;9.30;99.90
26803;DHT22;14378;51.796;5.808;2024-03-02T08:56:35;9.30;99.90
26803;DHT22;14378;51.796;5.808;2024-03-02T08:58:36;9.30;99.90
26803;DHT22;14378;51.796;5.808;2024-03-02T09:00:39;9.40;99.90
26803;DHT22;14378;51.796;5.808;2024-03-02T09:02:46;9.40;99.90
26803;DHT22;14378;51.796;5.808;2024-03-02T09:04:53;9.50;99.90
26803;DHT22;14378;51.796;5.808;2024-03-02T09:06:54;9.50;99.90
26803;DHT22;14378;51.796;5.808;2024-03-02T09:08:54;9.60;99.90
26803;DHT22;14378;51.796;5.808;2024-03-02T09:10:56;9.70;99.90
26803;DHT22;14378;51.796;5.808;2024-03-02T09:12:57;9.70;99.90
26803;DHT22;14378;51.796;5.808;2024-03-02T09:15:05;9.80;99.90
26803;DHT22;14378;51.796;5.808;2024-03-02T09:17:06;9.80;99.90
26803;DHT22;14378;51.796;5.808;2024-03-02T09:19:15;9.80;99.90
26803;DHT22;14378;51.796;5.808;2024-03-02T09:21:17;9.80;99.90
26803;DHT22;14378;51.796;5.808;2024-03-02T09:23:17;9.80;99.90
26803;DHT22;14378;51.796;5.808;2024-03-02T09:25:18;9.80;99.90
26803;DHT22;14378;51.796;5.808;2024-03-02T09:27:19;9.90;99.90
26803;DHT22;14378;51.796;5.808;2024-03-02T09:29:20;10.00;99.90
26803;DHT22;14378;51.796;5.808;2024-03-02T09:31:21;10.00;99.90
26803;DHT22;14378;51.796;5.808;2024-03-02T09:33:22;10.10;99.90
26803;DHT22;14378;51.796;5.808;2024-03-02T09:35:24;10.20;99.90
26803;DHT22;14378;51.796;5.808;2024-03-02T09:37:24;10.30;99.90
26803;DHT22;14378;51.796;5.808;2024-03-02T09:39:25;10.40;99.90
26803;DHT22;14378;51.796;5.808;2024-03-02T09:41:26;10.60;99.90
26803;DHT22;14378;51.796;5.808;2024-03-02T09:43:28;10.70;99.90
26803;DHT22;14378;51.796;5.808;2024-03-02T09:45:29;10.90;99.90
26803;DHT22;14378;51.796;5.808;2024-03-02T09:47:30;11.00;99.90
26803;DHT22;14378;51.796;5.808;2024-03-02T09:49:31;11.20;99.90
26803;DHT22;14378;51.796;5.808;2024-03-02T09:51:32;11.30;99.90
26803;DHT22;14378;51.796;5.808;2024-03-02T09:53:34;11.50;99.90
26803;DHT22;14378;51.796;5.808;2024-03-02T09:55:35;11.70;99.90
26803;DHT22;14378;51.796;5.808;2024-03-02T09:57:36;11.80;99.90
26803;DHT22;14378;51.796;5.808;2024-03-02T09:59:37;12.00;99.90
26803;DHT22;14378;51.796;5.808;2024-03-02T10:01:37;12.10;99.90
26803;DHT22;14378;51.796;5.808;2024-03-02T10:03:39;12.20;99.90
26803;DHT22;14378;51.796;5.808;2024-03-02T10:05:40;12.30;99.90
26803;DHT22;14378;51.796;5.808;2024-03-02T10:07:41;12.50;99.90
26803;DHT22;14378;51.796;5.808;2024-03-02T10:09:43;12.60;99.90
26803;DHT22;14378;51.796;5.808;2024-03-02T10:11:51;12.70;99.90
26803;DHT22;14378;51.796;5.808;2024-03-02T10:16:12;12.90;99.90
26803;DHT22;14378;51.796;5.808;2024-03-02T10:18:26;13.00;99.90
26803;DHT22;14378;51.796;5.808;2024-03-02T10:20:28;13.20;99.90
26803;DHT22;14378;51.796;5.808;2024-03-02T10:22:34;13.40;99.90
26803;DHT22;14378;51.796;5.808;2024-03-02T10:24:53;13.50;99.90
26803;DHT22;14378;51.796;5.808;2024-03-02T10:26:53;13.70;99.90
26803;DHT22;14378;51.796;5.808;2024-03-02T10:28:55;13.90;99.90
26803;DHT22;14378;51.796;5.808;2024-03-02T10:31:00;14.00;99.90
26803;DHT22;14378;51.796;5.808;2024-03-02T10:33:04;14.10;99.90
26803;DHT22;14378;51.796;5.808;2024-03-02T10:35:07;14.30;99.90
26803;DHT22;14378;51.796;5.808;2024-03-02T10:37:08;14.50;99.90
26803;DHT22;14378;51.796;5.808;2024-03-02T10:39:13;14.70;99.90
26803;DHT22;14378;51.796;5.808;2024-03-02T10:41:26;14.80;99.90
26803;DHT22;14378;51.796;5.808;2024-03-02T10:43:27;14.90;99.90
26803;DHT22;14378;51.796;5.808;2024-03-02T10:45:29;15.10;99.90
26803;DHT22;14378;51.796;5.808;2024-03-02T10:47:31;15.20;99.90
26803;DHT22;14378;51.796;5.808;2024-03-02T10:49:42;15.20;99.90
26803;DHT22;14378;51.796;5.808;2024-03-02T10:51:46;15.20;99.90
26803;DHT22;14378;51.796;5.808;2024-03-02T10:53:47;15.20;99.90
26803;DHT22;14378;51.796;5.808;2024-03-02T10:55:58;15.20;99.90
26803;DHT22;14378;51.796;5.808;2024-03-02T10:58:04;15.30;99.90
26803;DHT22;14378;51.796;5.808;2024-03-02T11:00:08;15.30;99.90
26803;DHT22;14378;51.796;5.808;2024-03-02T11:02:15;15.40;99.90
26803;DHT22;14378;51.796;5.808;2024-03-02T11:04:18;15.50;99.90
26803;DHT22;14378;51.796;5.808;2024-03-02T11:06:22;15.50;99.90
26803;DHT22;14378;51.796;5.808;2024-03-02T11:08:24;15.50;99.90
26803;DHT22;14378;51.796;5.808;2024-03-02T11:10:38;15.60;99.90
26803;DHT22;14378;51.796;5.808;2024-03-02T11:12:52;15.60;99.90
26803;DHT22;14378;51.796;5.808;2024-03-02T11:14:55;15.70;99.90
26803;DHT22;14378;51.796;5.808;2024-03-02T11:16:58;15.90;99.90
26803;DHT22;14378;51.796;5.808;2024-03-02T11:19:06;15.90;99.90
26803;DHT22;14378;51.796;5.808;2024-03-02T11:21:09;16.00;99.90
26803;DHT22;14378;51.796;5.808;2024-03-02T11:23:10;16.10;99.90
26803;DHT22;14378;51.796;5.808;2024-03-02T11:25:27;16.10;99.90
26803;DHT22;14378;51.796;5.808;2024-03-02T11:29:48;16.40;99.90
26803;DHT22;14378;51.796;5.808;2024-03-02T11:31:59;16.30;99.90
26803;DHT22;14378;51.796;5.808;2024-03-02T11:34:32;16.40;99.90
26803;DHT22;14378;51.796;5.808;2024-03-02T11:36:34;16.60;99.90
26803;DHT22;14378;51.796;5.808;2024-03-02T11:38:36;16.70;99.90
26803;DHT22;14378;51.796;5.808;2024-03-02T11:40:41;16.80;99.90
26803;DHT22;14378;51.796;5.808;2024-03-02T11:42:42;16.80;99.90
26803;DHT22;14378;51.796;5.808;2024-03-02T11:44:47;16.90;99.90
26803;DHT22;14378;51.796;5.808;2024-03-02T11:47:02;17.00;99.90
26803;DHT22;14378;51.796;5.808;2024-03-02T11:49:14;17.10;99.90
26803;DHT22;14378;51.796;5.808;2024-03-02T11:51:16;17.20;99.90
26803;DHT22;14378;51.796;5.808;2024-03-02T11:53:18;17.30;99.90
26803;DHT22;14378;51.796;5.808;2024-03-02T11:55:23;17.40;99.90
26803;DHT22;14378;51.796;5.808;2024-03-02T11:57:24;17.50;99.90
26803;DHT22;14378;51.796;5.808;2024-03-02T11:59:27;17.60;99.90
26803;DHT22;14378;51.796;5.808;2024-03-02T12:01:29;17.70;99.90
26803;DHT22;14378;51.796;5.808;2024-03-02T12:03:36;17.80;99.90
26803;DHT22;14378;51.796;5.808;2024-03-02T12:05:37;17.80;99.90
26803;DHT22;14378;51.796;5.808;2024-03-02T12:07:38;17.70;99.90
26803;DHT22;14378;51.796;5.808;2024-03-02T12:09:46;17.80;99.90
26803;DHT22;14378;51.796;5.808;2024-03-02T12:11:47;17.90;99.90
26803;DHT22;14378;51.796;5.808;2024-03-02T12:13:54;17.90;99.90
26803;DHT22;14378;51.796;5.808;2024-03-02T12:15:55;17.80;99.90
26803;DHT22;14378;51.796;5.808;2024-03-02T12:18:00;17.90;99.90
26803;DHT22;14378;51.796;5.808;2024-03-02T12:20:05;17.90;99.90
26803;DHT22;14378;51.796;5.808;2024-03-02T12:22:07;17.90;99.90
26803;DHT22;14378;51.796;5.808;2024-03-02T12:24:09;17.70;99.90
26803;DHT22;14378;51.796;5.808;2024-03-02T12:26:10;17.70;99.90
26803;DHT22;14378;51.796;5.808;2024-03-02T12:28:11;17.70;99.90
26803;DHT22;14378;51.796;5.808;2024-03-02T12:30:13;17.60;99.90
26803;DHT22;14378;51.796;5.808;2024-03-02T12:32:14;17.60;99.90
26803;DHT22;14378;51.796;5.808;2024-03-02T12:34:17;17.60;99.90
26803;DHT22;14378;51.796;5.808;2024-03-02T12:36:19;17.50;99.90
26803;DHT22;14378;51.796;5.808;2024-03-02T12:38:20;17.50;99.90
26803;DHT22;14378;51.796;5.808;2024-03-02T12:40:22;17.60;99.90
26803;DHT22;14378;51.796;5.808;2024-03-02T12:42:26;17.70;99.90
26803;DHT22;14378;51.796;5.808;2024-03-02T12:44:39;17.70;99.90
26803;DHT22;14378;51.796;5.808;2024-03-02T12:46:49;17.80;99.90
26803;DHT22;14378;51.796;5.808;2024-03-02T12:48:51;17.80;99.90
26803;DHT22;14378;51.796;5.808;2024-03-02T12:50:52;17.90;99.90
26803;DHT22;14378;51.796;5.808;2024-03-02T12:52:53;18.00;99.90
26803;DHT22;14378;51.796;5.808;2024-03-02T12:54:55;18.10;99.90
26803;DHT22;14378;51.796;5.808;2024-03-02T12:56:59;18.20;99.90
26803;DHT22;14378;51.796;5.808;2024-03-02T12:59:01;18.20;99.90
26803;DHT22;14378;51.796;5.808;2024-03-02T13:01:08;18.30;99.90
26803;DHT22;14378;51.796;5.808;2024-03-02T13:03:12;18.30;99.90
26803;DHT22;14378;51.796;5.808;2024-03-02T13:05:14;18.40;99.90
26803;DHT22;14378;51.796;5.808;2024-03-02T13:07:15;18.50;99.90
26803;DHT22;14378;51.796;5.808;2024-03-02T13:09:16;18.60;99.60
26803;DHT22;14378;51.796;5.808;2024-03-02T13:11:17;18.60;99.40
26803;DHT22;14378;51.796;5.808;2024-03-02T13:13:30;18.70;99.40